createdAt,value
2018-03-03T00:01:48.984Z,71.00
2018-03-03T00:02:48.834Z,72.70
2018-03-03T00:04:41.719Z,74.80
2018-03-03T00:05:41.690Z,71.10
2018-03-03T00:07:34.803Z,74.80
2018-03-03T00:08:34.535Z,72.70
2018-03-03T00:10:27.539Z,70.60
2018-03-03T00:11:27.376Z,72.70
2018-03-03T00:13:20.773Z,72.00
2018-03-03T00:14:20.727Z,72.50
2018-03-03T00:16:14.110Z,72.90
2018-03-03T00:17:14.068Z,74.50
2018-03-03T00:19:06.960Z,73.10
2018-03-03T00:20:06.925Z,74.40
2018-03-03T00:21:59.800Z,73.60
2018-03-03T00:22:59.771Z,73.30
2018-03-03T00:24:52.663Z,73.80
2018-03-03T00:25:52.630Z,73.30
2018-03-03T00:27:46.046Z,72.50
2018-03-03T00:28:45.996Z,72.10
2018-03-03T00:30:39.412Z,72.50
2018-03-03T00:31:39.368Z,69.60
2018-03-03T00:33:32.381Z,70.70
2018-03-03T00:34:32.234Z,69.70
2018-03-03T00:36:25.169Z,72.40
2018-03-03T00:37:25.075Z,72.10
2018-03-03T00:39:18.038Z,71.80
2018-03-03T00:40:17.932Z,69.50
2018-03-03T00:42:10.819Z,69.00
2018-03-03T00:43:10.777Z,71.80
2018-03-03T00:45:03.694Z,73.00
2018-03-03T00:46:03.653Z,73.20
2018-03-03T00:47:57.066Z,76.10
2018-03-03T00:48:57.026Z,74.90
2018-03-03T00:50:49.997Z,76.20
2018-03-03T00:51:49.877Z,74.60
2018-03-03T00:53:43.298Z,72.10
2018-03-03T00:54:43.667Z,71.60
2018-03-03T00:56:36.100Z,73.10
2018-03-03T00:57:36.093Z,72.10
2018-03-03T00:59:28.972Z,72.20
2018-03-03T01:00:29.507Z,71.80
2018-03-03T01:02:21.852Z,70.60
2018-03-03T01:03:21.783Z,70.50
2018-03-03T01:05:14.663Z,72.90
2018-03-03T01:06:14.634Z,73.70
2018-03-03T01:08:07.528Z,75.60
2018-03-03T01:09:07.493Z,76.00
2018-03-03T01:11:00.368Z,73.70
2018-03-03T01:12:00.340Z,76.20
2018-03-03T01:13:53.235Z,74.20
2018-03-03T01:14:53.182Z,74.60
2018-03-03T01:16:46.557Z,75.20
2018-03-03T01:17:46.529Z,73.70
2018-03-03T01:19:39.929Z,75.00
2018-03-03T01:20:39.904Z,72.80
2018-03-03T01:22:32.825Z,73.70
2018-03-03T01:23:32.756Z,73.50
2018-03-03T01:25:25.648Z,73.70
2018-03-03T01:26:25.614Z,72.90
2018-03-03T01:28:18.502Z,70.40
2018-03-03T01:29:18.487Z,70.60
2018-03-03T01:31:11.388Z,69.80
2018-03-03T01:32:11.314Z,70.20
2018-03-03T01:34:04.737Z,71.20
2018-03-03T01:35:04.655Z,70.30
2018-03-03T01:36:57.605Z,69.00
2018-03-03T01:37:57.522Z,64.10
2018-03-03T01:39:50.410Z,66.20
2018-03-03T01:40:50.374Z,67.00
2018-03-03T01:42:43.326Z,66.10
2018-03-03T01:43:43.220Z,64.90
2018-03-03T01:45:36.104Z,69.00
2018-03-03T01:46:36.078Z,68.50
2018-03-03T01:48:29.520Z,69.80
2018-03-03T01:49:29.429Z,69.70
2018-03-03T01:51:22.309Z,65.20
2018-03-03T01:52:22.269Z,64.90
2018-03-03T01:54:15.682Z,65.90
2018-03-03T01:55:15.628Z,69.20
2018-03-03T01:57:08.514Z,65.20
2018-03-03T01:58:08.487Z,64.70
2018-03-03T02:00:01.377Z,67.70
2018-03-03T02:01:01.332Z,69.70
2018-03-03T02:02:54.224Z,67.30
2018-03-03T02:03:54.185Z,68.20
2018-03-03T02:05:47.070Z,67.00
2018-03-03T02:06:47.037Z,65.20
2018-03-03T02:08:40.419Z,66.00
2018-03-03T02:09:40.383Z,66.00
2018-03-03T02:11:33.264Z,65.30
2018-03-03T02:12:33.237Z,67.80
2018-03-03T02:14:26.127Z,67.80
2018-03-03T02:15:26.090Z,67.90
2018-03-03T02:17:19.467Z,66.80
2018-03-03T02:18:19.438Z,68.40
2018-03-03T02:20:12.315Z,67.70
2018-03-03T02:21:12.286Z,65.40
2018-03-03T02:23:05.175Z,64.80
2018-03-03T02:24:05.149Z,68.90
2018-03-03T02:25:58.032Z,68.60
2018-03-03T02:26:57.993Z,64.70
2018-03-03T02:28:51.373Z,68.20
2018-03-03T02:29:51.934Z,67.00
2018-03-03T02:31:44.736Z,68.20
2018-03-03T02:32:44.696Z,67.30
2018-03-03T02:34:37.581Z,64.50
2018-03-03T02:35:37.552Z,65.80
2018-03-03T02:37:30.436Z,67.20
2018-03-03T02:38:30.405Z,69.40
2018-03-03T02:40:23.784Z,65.30
2018-03-03T02:41:23.779Z,66.30
2018-03-03T02:43:17.122Z,68.30
2018-03-03T02:44:17.090Z,67.20
2018-03-03T02:46:11.051Z,66.00
2018-03-03T02:47:10.452Z,65.70
2018-03-03T02:49:03.379Z,64.90
2018-03-03T02:50:03.287Z,68.00
2018-03-03T02:51:56.183Z,68.30
2018-03-03T02:52:56.168Z,64.80
2018-03-03T02:54:49.037Z,65.70
2018-03-03T02:55:49.000Z,67.20
2018-03-03T02:57:41.884Z,66.50
2018-03-03T02:58:41.848Z,67.90
2018-03-03T03:00:35.273Z,66.80
2018-03-03T03:01:35.193Z,66.70
2018-03-03T03:03:28.599Z,66.70
2018-03-03T03:04:28.563Z,65.40
2018-03-03T03:06:21.424Z,65.80
2018-03-03T03:07:21.396Z,67.40
2018-03-03T03:09:14.275Z,64.00
2018-03-03T03:10:14.246Z,67.00
2018-03-03T03:12:07.634Z,64.30
2018-03-03T03:13:07.597Z,64.10
2018-03-03T03:15:00.548Z,68.10
2018-03-03T03:16:00.453Z,72.10
2018-03-03T03:17:53.352Z,69.80
2018-03-03T03:18:53.310Z,66.70
2018-03-03T03:20:46.267Z,65.30
2018-03-03T03:21:46.157Z,65.60
2018-03-03T03:23:39.572Z,67.10
2018-03-03T03:24:39.495Z,65.00
2018-03-03T03:26:32.434Z,64.20
2018-03-03T03:27:32.354Z,63.80
2018-03-03T03:29:25.237Z,63.20
2018-03-03T03:30:25.208Z,64.90
2018-03-03T03:32:19.162Z,63.40
2018-03-03T03:33:18.565Z,65.10
2018-03-03T03:35:11.445Z,66.50
2018-03-03T03:36:11.408Z,66.40
2018-03-03T03:38:04.285Z,65.90
2018-03-03T03:39:04.256Z,66.50
2018-03-03T03:40:57.167Z,65.90
2018-03-03T03:41:57.122Z,66.50
2018-03-03T03:43:49.996Z,70.30
2018-03-03T03:44:49.969Z,74.40
2018-03-03T03:46:42.849Z,65.00
2018-03-03T03:47:42.840Z,63.50
2018-03-03T03:49:35.735Z,65.10
2018-03-03T03:50:35.673Z,65.40
2018-03-03T03:52:28.565Z,64.20
2018-03-03T03:53:28.526Z,66.20
2018-03-03T03:55:21.436Z,64.60
2018-03-03T03:56:21.958Z,63.20
2018-03-03T03:58:14.750Z,65.40
2018-03-03T03:59:14.726Z,66.80
2018-03-03T04:01:07.619Z,63.50
2018-03-03T04:02:07.582Z,66.80
2018-03-03T04:04:00.462Z,66.20
2018-03-03T04:05:00.437Z,64.70
2018-03-03T04:06:53.404Z,64.40
2018-03-03T04:07:53.375Z,62.80
2018-03-03T04:09:46.165Z,65.90
2018-03-03T04:10:46.131Z,66.50
2018-03-03T04:12:39.037Z,65.40
2018-03-03T04:13:39.003Z,64.10
2018-03-03T04:15:31.872Z,68.70
2018-03-03T04:16:31.839Z,68.50
2018-03-03T04:18:24.741Z,65.70
2018-03-03T04:19:24.691Z,62.40
2018-03-03T04:21:17.616Z,66.50
2018-03-03T04:22:17.550Z,64.20
2018-03-03T04:24:10.475Z,65.80
2018-03-03T04:25:10.398Z,65.70
2018-03-03T04:27:04.354Z,61.50
2018-03-03T04:28:04.327Z,61.00
2018-03-03T04:29:57.229Z,65.90
2018-03-03T04:30:57.158Z,64.40
2018-03-03T04:32:50.540Z,62.90
2018-03-03T04:33:50.571Z,66.60
2018-03-03T04:35:43.899Z,67.60
2018-03-03T04:36:43.863Z,65.00
2018-03-03T04:38:36.737Z,63.40
2018-03-03T04:39:36.726Z,66.10
2018-03-03T04:41:30.079Z,67.40
2018-03-03T04:42:30.050Z,67.70
2018-03-03T04:44:22.937Z,67.00
2018-03-03T04:45:22.905Z,66.50
2018-03-03T04:47:15.803Z,66.70
2018-03-03T04:48:15.790Z,68.10
2018-03-03T04:50:08.680Z,65.50
2018-03-03T04:51:08.608Z,65.20
2018-03-03T04:53:01.527Z,64.20
2018-03-03T04:54:01.463Z,66.90
2018-03-03T04:55:54.357Z,66.50
2018-03-03T04:56:54.319Z,67.20
2018-03-03T04:58:47.215Z,66.50
2018-03-03T04:59:47.171Z,66.30
2018-03-03T05:01:40.123Z,64.10
2018-03-03T05:02:40.029Z,64.10
2018-03-03T05:04:33.404Z,67.60
2018-03-03T05:05:33.370Z,66.50
2018-03-03T05:07:26.257Z,65.00
2018-03-03T05:08:26.226Z,66.00
2018-03-03T05:10:19.120Z,66.40
2018-03-03T05:11:19.073Z,66.60
2018-03-03T05:13:12.463Z,65.60
2018-03-03T05:14:12.446Z,64.70
2018-03-03T05:16:05.345Z,66.10
2018-03-03T05:17:05.291Z,67.60
2018-03-03T05:18:58.224Z,65.20
2018-03-03T05:19:58.138Z,64.00
2018-03-03T05:21:51.069Z,66.80
2018-03-03T05:22:50.991Z,64.60
2018-03-03T05:24:43.884Z,65.90
2018-03-03T05:25:43.846Z,67.00
2018-03-03T05:27:36.734Z,66.90
2018-03-03T05:28:36.694Z,64.80
2018-03-03T05:30:30.098Z,64.80
2018-03-03T05:31:30.044Z,65.80
2018-03-03T05:33:22.948Z,63.00
2018-03-03T05:34:22.900Z,65.50
2018-03-03T05:36:15.791Z,65.70
2018-03-03T05:37:15.752Z,66.10
2018-03-03T05:39:08.650Z,66.10
2018-03-03T05:40:08.605Z,66.00
2018-03-03T05:42:01.993Z,68.30
2018-03-03T05:43:01.953Z,67.10
2018-03-03T05:44:54.958Z,64.20
2018-03-03T05:45:54.797Z,64.10
2018-03-03T05:47:47.735Z,63.60
2018-03-03T05:48:47.655Z,61.80
2018-03-03T05:50:40.730Z,64.90
2018-03-03T05:51:40.512Z,64.60
2018-03-03T05:53:33.458Z,65.60
2018-03-03T05:54:33.355Z,64.40
2018-03-03T05:56:26.242Z,66.40
2018-03-03T05:57:26.210Z,64.50
2018-03-03T05:59:19.240Z,67.50
2018-03-03T06:00:19.072Z,66.30
2018-03-03T06:02:11.956Z,64.70
2018-03-03T06:03:11.915Z,65.50
2018-03-03T06:05:05.473Z,66.40
2018-03-03T06:06:05.302Z,67.20
2018-03-03T06:07:58.158Z,66.80
2018-03-03T06:08:58.120Z,67.10
2018-03-03T06:10:51.626Z,67.00
2018-03-03T06:11:51.469Z,68.70
2018-03-03T06:13:44.366Z,66.90
2018-03-03T06:14:44.324Z,66.70
2018-03-03T06:16:37.700Z,67.70
2018-03-03T06:17:37.675Z,65.90
2018-03-03T06:19:30.679Z,68.80
2018-03-03T06:20:30.527Z,66.00
2018-03-03T06:22:23.902Z,66.50
2018-03-03T06:23:23.873Z,68.70
2018-03-03T06:25:17.407Z,68.10
2018-03-03T06:26:17.227Z,68.40
2018-03-03T06:28:10.178Z,68.70
2018-03-03T06:29:10.062Z,64.00
2018-03-03T06:31:03.091Z,61.80
2018-03-03T06:32:02.941Z,65.30
2018-03-03T06:33:56.107Z,66.20
2018-03-03T06:34:55.800Z,65.60
2018-03-03T06:36:48.710Z,67.40
2018-03-03T06:37:48.621Z,64.10
2018-03-03T06:39:42.026Z,65.20
2018-03-03T06:40:42.583Z,66.40
2018-03-03T06:42:36.912Z,65.20
2018-03-03T06:43:35.321Z,67.60
2018-03-03T06:45:28.416Z,69.00
2018-03-03T06:46:28.180Z,66.30
2018-03-03T06:48:22.101Z,63.00
2018-03-03T06:49:21.524Z,67.20
2018-03-03T06:51:15.002Z,65.00
2018-03-03T06:52:14.894Z,66.80
2018-03-03T06:54:07.781Z,65.20
2018-03-03T06:55:07.741Z,65.60
2018-03-03T06:57:00.635Z,66.00
2018-03-03T06:58:00.595Z,64.40
2018-03-03T06:59:53.578Z,67.80
2018-03-03T07:00:54.035Z,65.10
2018-03-03T07:02:46.896Z,68.80
2018-03-03T07:03:46.813Z,67.60
2018-03-03T07:05:39.774Z,65.20
2018-03-03T07:06:39.644Z,66.10
2018-03-03T07:08:32.539Z,65.70
2018-03-03T07:09:32.506Z,65.90
2018-03-03T07:11:25.498Z,65.10
2018-03-03T07:12:25.404Z,64.40
2018-03-03T07:14:18.816Z,66.80
2018-03-03T07:15:18.705Z,70.00
2018-03-03T07:17:12.119Z,66.50
2018-03-03T07:18:12.055Z,68.20
2018-03-03T07:20:05.178Z,67.10
2018-03-03T07:21:04.943Z,65.80
2018-03-03T07:22:58.033Z,66.80
2018-03-03T07:23:57.772Z,65.10
2018-03-03T07:25:51.502Z,66.70
2018-03-03T07:26:51.120Z,67.50
2018-03-03T07:28:44.550Z,69.30
2018-03-03T07:29:44.460Z,68.50
2018-03-03T07:31:37.544Z,68.60
2018-03-03T07:32:37.328Z,67.70
2018-03-03T07:34:30.330Z,67.20
2018-03-03T07:35:30.220Z,65.80
2018-03-03T07:37:23.064Z,70.10
2018-03-03T07:38:23.049Z,68.30
2018-03-03T07:40:17.954Z,66.50
2018-03-03T07:41:16.410Z,67.50
2018-03-03T07:43:10.035Z,68.20
2018-03-03T07:44:09.723Z,64.40
2018-03-03T07:46:02.646Z,67.70
2018-03-03T07:47:02.699Z,67.80
2018-03-03T07:48:55.975Z,68.70
2018-03-03T07:49:55.935Z,67.30
2018-03-03T07:51:49.338Z,69.40
2018-03-03T07:52:49.301Z,69.70
2018-03-03T07:54:42.789Z,71.30
2018-03-03T07:55:42.639Z,70.80
2018-03-03T07:57:35.662Z,65.50
2018-03-03T07:58:35.505Z,67.30
2018-03-03T08:00:28.497Z,66.70
2018-03-03T08:01:28.362Z,69.60
2018-03-03T08:03:22.293Z,68.10
2018-03-03T08:04:21.722Z,69.70
2018-03-03T08:06:15.359Z,68.40
2018-03-03T08:07:15.056Z,69.30
2018-03-03T08:09:08.581Z,69.70
2018-03-03T08:10:08.444Z,69.50
2018-03-03T08:12:01.839Z,66.20
2018-03-03T08:13:01.793Z,65.60
2018-03-03T08:14:55.241Z,68.10
2018-03-03T08:15:55.145Z,68.70
2018-03-03T08:17:48.629Z,69.10
2018-03-03T08:18:48.006Z,72.20
2018-03-03T08:20:40.875Z,68.70
2018-03-03T08:21:40.858Z,71.10
2018-03-03T08:23:33.740Z,66.40
2018-03-03T08:24:33.702Z,66.70
2018-03-03T08:26:26.606Z,69.70
2018-03-03T08:27:26.570Z,66.20
2018-03-03T08:29:19.491Z,66.70
2018-03-03T08:30:19.473Z,67.10
2018-03-03T08:32:12.844Z,68.60
2018-03-03T08:33:12.816Z,69.80
2018-03-03T08:35:05.711Z,67.90
2018-03-03T08:36:05.679Z,67.30
2018-03-03T08:37:58.566Z,68.20
2018-03-03T08:38:58.532Z,67.50
2018-03-03T08:40:51.420Z,73.30
2018-03-03T08:41:51.390Z,72.80
2018-03-03T08:43:44.286Z,69.60
2018-03-03T08:44:44.250Z,68.40
2018-03-03T08:46:37.141Z,65.40
2018-03-03T08:47:37.105Z,65.50
2018-03-03T08:49:30.495Z,70.90
2018-03-03T08:50:30.471Z,69.80
2018-03-03T08:52:23.367Z,67.90
2018-03-03T08:53:23.321Z,66.50
2018-03-03T08:55:16.704Z,68.60
2018-03-03T08:56:16.683Z,67.60
2018-03-03T08:58:09.570Z,67.40
2018-03-03T08:59:09.533Z,66.70
2018-03-03T09:01:02.459Z,68.40
2018-03-03T09:02:02.397Z,68.70
2018-03-03T09:03:55.780Z,67.40
2018-03-03T09:04:55.765Z,65.70
2018-03-03T09:06:49.134Z,70.10
2018-03-03T09:07:49.101Z,67.00
2018-03-03T09:09:42.020Z,66.40
2018-03-03T09:10:41.970Z,66.40
2018-03-03T09:12:35.426Z,70.60
2018-03-03T09:13:35.352Z,67.70
2018-03-03T09:15:28.283Z,66.80
2018-03-03T09:16:28.185Z,67.20
2018-03-03T09:18:21.106Z,69.70
2018-03-03T09:19:21.622Z,71.30
2018-03-03T09:21:14.514Z,70.70
2018-03-03T09:22:14.415Z,69.50
2018-03-03T09:24:07.304Z,67.70
2018-03-03T09:25:07.831Z,68.90
2018-03-03T09:27:00.166Z,66.70
2018-03-03T09:28:00.142Z,67.00
2018-03-03T09:29:53.110Z,65.90
2018-03-03T09:30:52.997Z,69.50
2018-03-03T09:32:45.929Z,65.20
2018-03-03T09:33:45.877Z,66.20
2018-03-03T09:35:40.249Z,65.60
2018-03-03T09:36:40.219Z,65.10
2018-03-03T09:38:33.133Z,64.10
2018-03-03T09:39:33.084Z,62.50
2018-03-03T09:41:25.980Z,63.00
2018-03-03T09:42:25.953Z,64.70
2018-03-03T09:44:18.847Z,65.50
2018-03-03T09:45:18.840Z,67.40
2018-03-03T09:47:11.821Z,65.30
2018-03-03T09:48:11.697Z,64.90
2018-03-03T09:50:04.813Z,62.80
2018-03-03T09:51:04.557Z,65.70
2018-03-03T09:52:57.473Z,64.50
2018-03-03T09:53:57.435Z,61.80
2018-03-03T09:55:50.454Z,61.60
2018-03-03T09:56:50.299Z,60.50
2018-03-03T09:58:43.303Z,61.60
2018-03-03T09:59:43.164Z,61.90
2018-03-03T10:01:43.358Z,63.40
2018-03-03T10:02:36.522Z,62.20
2018-03-03T10:04:29.454Z,60.80
2018-03-03T10:05:29.409Z,62.80
2018-03-03T10:07:23.053Z,62.70
2018-03-03T10:08:22.832Z,61.30
2018-03-03T10:10:19.694Z,62.10
2018-03-03T10:11:15.726Z,63.90
2018-03-03T10:13:11.306Z,63.40
2018-03-03T10:14:09.135Z,63.70
2018-03-03T10:16:03.253Z,62.80
2018-03-03T10:17:02.447Z,63.30
2018-03-03T10:18:55.449Z,63.30
2018-03-03T10:19:55.310Z,63.70
2018-03-03T10:21:48.315Z,63.30
2018-03-03T10:22:48.202Z,64.20
2018-03-03T10:24:41.078Z,62.80
2018-03-03T10:25:41.043Z,61.40
2018-03-03T10:27:34.435Z,58.80
2018-03-03T10:28:34.397Z,60.50
2018-03-03T10:30:27.800Z,61.70
2018-03-03T10:31:27.760Z,60.80
2018-03-03T10:33:20.775Z,61.40
2018-03-03T10:34:20.616Z,62.50
2018-03-03T10:36:14.016Z,65.30
2018-03-03T10:37:13.987Z,64.80
2018-03-03T10:39:06.883Z,61.10
2018-03-03T10:40:06.836Z,65.40
2018-03-03T10:42:00.058Z,65.20
2018-03-03T10:43:00.020Z,63.90
2018-03-03T10:44:53.409Z,64.10
2018-03-03T10:45:53.374Z,63.90
2018-03-03T10:47:46.279Z,62.50
2018-03-03T10:48:46.256Z,60.50
2018-03-03T10:50:39.908Z,61.90
2018-03-03T10:51:39.730Z,61.10
2018-03-03T10:53:33.057Z,61.30
2018-03-03T10:54:32.998Z,62.70
2018-03-03T10:56:26.393Z,62.10
2018-03-03T10:57:26.357Z,60.70
2018-03-03T10:59:19.253Z,61.40
2018-03-03T11:00:19.219Z,61.80
2018-03-03T11:02:12.147Z,63.20
2018-03-03T11:03:12.088Z,61.80
2018-03-03T11:05:04.984Z,62.50
2018-03-03T11:06:04.953Z,61.60
2018-03-03T11:07:57.841Z,61.40
2018-03-03T11:08:57.812Z,60.90
2018-03-03T11:10:50.711Z,58.80
2018-03-03T11:11:50.675Z,59.50
2018-03-03T11:13:44.068Z,57.20
2018-03-03T11:14:44.033Z,57.20
2018-03-03T11:16:36.934Z,56.10
2018-03-03T11:17:36.906Z,56.80
2018-03-03T11:19:29.799Z,57.80
2018-03-03T11:20:29.775Z,57.00
2018-03-03T11:22:23.213Z,58.20
2018-03-03T11:23:23.125Z,56.90
2018-03-03T11:25:16.021Z,58.70
2018-03-03T11:26:15.981Z,58.10
2018-03-03T11:28:08.884Z,57.90
2018-03-03T11:29:08.852Z,54.20
2018-03-03T11:31:01.746Z,56.20
2018-03-03T11:32:01.713Z,56.80
2018-03-03T11:33:54.609Z,56.50
2018-03-03T11:34:54.578Z,58.20
2018-03-03T11:36:47.476Z,56.00
2018-03-03T11:37:47.446Z,53.50
2018-03-03T11:39:40.341Z,53.40
2018-03-03T11:40:40.307Z,55.90
2018-03-03T11:42:33.702Z,56.80
2018-03-03T11:43:33.662Z,53.60
2018-03-03T11:45:26.562Z,54.70
2018-03-03T11:46:26.528Z,55.00
2018-03-03T11:48:19.444Z,54.60
2018-03-03T11:49:19.408Z,55.80
2018-03-03T11:51:12.309Z,57.60
2018-03-03T11:52:12.277Z,58.10
2018-03-03T11:54:05.170Z,56.30
2018-03-03T11:55:05.143Z,56.00
2018-03-03T11:56:58.041Z,55.40
2018-03-03T11:57:58.005Z,56.80
2018-03-03T11:59:51.393Z,54.90
2018-03-03T12:00:51.364Z,56.60
2018-03-03T12:02:44.256Z,56.90
2018-03-03T12:03:44.227Z,58.70
2018-03-03T12:05:37.137Z,56.00
2018-03-03T12:06:37.098Z,55.30
2018-03-03T12:08:29.990Z,57.20
2018-03-03T12:09:29.966Z,57.80
2018-03-03T12:11:22.908Z,55.00
2018-03-03T12:12:22.831Z,56.50
2018-03-03T12:14:15.725Z,56.00
2018-03-03T12:15:15.696Z,57.10
2018-03-03T12:17:08.624Z,55.10
2018-03-03T12:18:08.561Z,58.70
2018-03-03T12:20:01.994Z,53.70
2018-03-03T12:21:01.446Z,53.40
2018-03-03T12:22:54.340Z,54.00
2018-03-03T12:23:54.307Z,54.50
2018-03-03T12:25:47.701Z,53.50
2018-03-03T12:26:47.662Z,54.50
2018-03-03T12:28:40.569Z,53.60
2018-03-03T12:29:40.534Z,54.60
2018-03-03T12:31:33.426Z,53.00
2018-03-03T12:32:33.400Z,52.30
2018-03-03T12:34:26.287Z,54.90
2018-03-03T12:35:26.258Z,54.00
2018-03-03T12:37:19.721Z,54.60
2018-03-03T12:38:19.620Z,54.50
2018-03-03T12:40:12.553Z,55.80
2018-03-03T12:41:12.519Z,56.30
2018-03-03T12:43:05.415Z,55.70
2018-03-03T12:44:05.388Z,56.50
2018-03-03T12:45:58.287Z,58.80
2018-03-03T12:46:58.254Z,54.90
2018-03-03T12:48:51.145Z,56.80
2018-03-03T12:49:51.120Z,57.20
2018-03-03T12:51:44.008Z,56.00
2018-03-03T12:52:43.984Z,56.40
2018-03-03T12:54:36.893Z,56.00
2018-03-03T12:55:36.843Z,53.70
2018-03-03T12:57:29.743Z,51.70
2018-03-03T12:58:29.723Z,53.00
2018-03-03T13:00:22.616Z,53.60
2018-03-03T13:01:22.613Z,53.80
2018-03-03T13:03:15.504Z,52.20
2018-03-03T13:04:15.480Z,52.40
2018-03-03T13:06:08.369Z,51.10
2018-03-03T13:07:08.333Z,51.30
2018-03-03T13:09:01.229Z,54.10
2018-03-03T13:10:01.190Z,53.40
2018-03-03T13:11:54.079Z,53.60
2018-03-03T13:12:54.053Z,53.40
2018-03-03T13:14:46.944Z,51.30
2018-03-03T13:15:46.902Z,49.60
2018-03-03T13:17:39.808Z,53.00
2018-03-03T13:18:39.773Z,55.10
2018-03-03T13:20:33.154Z,52.50
2018-03-03T13:21:33.127Z,51.50
2018-03-03T13:23:26.519Z,51.70
2018-03-03T13:24:26.486Z,53.00
2018-03-03T13:26:19.381Z,50.30
2018-03-03T13:27:19.348Z,52.00
2018-03-03T13:29:12.752Z,50.80
2018-03-03T13:30:12.709Z,51.50
2018-03-03T13:32:05.645Z,50.80
2018-03-03T13:33:05.580Z,52.60
2018-03-03T13:34:58.984Z,52.00
2018-03-03T13:35:58.431Z,52.50
2018-03-03T13:37:51.326Z,49.80
2018-03-03T13:38:51.298Z,49.70
2018-03-03T13:40:44.190Z,50.00
2018-03-03T13:41:44.162Z,50.40
2018-03-03T13:43:37.055Z,48.10
2018-03-03T13:44:37.016Z,47.90
2018-03-03T13:46:29.925Z,48.30
2018-03-03T13:47:29.887Z,47.60
2018-03-03T13:49:23.272Z,47.10
2018-03-03T13:50:23.242Z,49.20
2018-03-03T13:52:16.144Z,47.90
2018-03-03T13:53:16.111Z,48.90
2018-03-03T13:55:08.989Z,50.90
2018-03-03T13:56:08.956Z,49.30
2018-03-03T13:58:02.354Z,51.40
2018-03-03T13:59:02.321Z,51.30
2018-03-03T14:00:55.701Z,48.20
2018-03-03T14:01:55.668Z,46.70
2018-03-03T14:03:48.597Z,47.60
2018-03-03T14:04:48.545Z,48.30
2018-03-03T14:06:42.087Z,50.50
2018-03-03T14:07:41.896Z,48.00
2018-03-03T14:09:34.950Z,51.20
2018-03-03T14:10:34.752Z,51.10
2018-03-03T14:12:27.949Z,48.70
2018-03-03T14:13:27.605Z,50.00
2018-03-03T14:15:21.374Z,50.80
2018-03-03T14:16:20.487Z,50.50
2018-03-03T14:18:13.452Z,49.80
2018-03-03T14:19:13.410Z,48.80
2018-03-03T14:21:06.303Z,51.70
2018-03-03T14:22:06.251Z,50.60
2018-03-03T14:23:59.134Z,50.90
2018-03-03T14:24:59.269Z,50.50
2018-03-03T14:27:06.993Z,50.40
2018-03-03T14:27:52.503Z,49.40
2018-03-03T14:29:45.853Z,48.90
2018-03-03T14:30:45.804Z,46.90
2018-03-03T14:32:39.829Z,49.80
2018-03-03T14:33:39.168Z,50.10
2018-03-03T14:35:32.542Z,48.70
2018-03-03T14:36:32.509Z,51.70
2018-03-03T14:38:26.082Z,50.50
2018-03-03T14:39:25.859Z,49.00
2018-03-03T14:41:18.824Z,51.50
2018-03-03T14:42:19.296Z,50.70
2018-03-03T14:44:13.452Z,51.20
2018-03-03T14:45:12.075Z,49.60
2018-03-03T14:47:05.766Z,50.20
2018-03-03T14:48:05.426Z,51.10
2018-03-03T14:49:58.319Z,53.00
2018-03-03T14:50:58.273Z,51.30
2018-03-03T14:52:52.024Z,49.70
2018-03-03T14:53:51.645Z,50.70
2018-03-03T14:55:45.159Z,49.70
2018-03-03T14:56:45.016Z,48.70
2018-03-03T14:58:38.630Z,47.20
2018-03-03T14:59:38.391Z,48.50
2018-03-03T15:01:31.264Z,49.70
2018-03-03T15:02:31.479Z,50.60
2018-03-03T15:04:24.899Z,50.20
2018-03-03T15:05:24.565Z,51.80
2018-03-03T15:07:17.490Z,51.60
2018-03-03T15:08:17.438Z,52.20
2018-03-03T15:10:10.640Z,52.00
2018-03-03T15:11:10.289Z,52.70
2018-03-03T15:13:04.291Z,48.60
2018-03-03T15:14:03.642Z,49.10
2018-03-03T15:15:57.034Z,52.20
2018-03-03T15:16:56.996Z,56.40
2018-03-03T15:18:49.945Z,52.70
2018-03-03T15:19:49.848Z,52.20
2018-03-03T15:21:42.766Z,52.90
2018-03-03T15:22:42.734Z,51.90
2018-03-03T15:24:35.825Z,52.20
2018-03-03T15:25:35.581Z,52.00
2018-03-03T15:27:28.871Z,50.90
2018-03-03T15:28:29.051Z,50.40
2018-03-03T15:30:21.573Z,50.60
2018-03-03T15:31:21.296Z,50.90
2018-03-03T15:33:15.030Z,50.00
2018-03-03T15:34:14.733Z,49.70
2018-03-03T15:36:07.746Z,47.80
2018-03-03T15:37:07.555Z,48.80
2018-03-03T15:39:01.014Z,49.40
2018-03-03T15:40:01.466Z,49.40
2018-03-03T15:41:54.083Z,49.30
2018-03-03T15:42:53.767Z,47.70
2018-03-03T15:44:46.851Z,48.50
2018-03-03T15:45:46.680Z,50.70
2018-03-03T15:47:39.997Z,50.60
2018-03-03T15:48:39.962Z,49.90
2018-03-03T15:50:32.915Z,51.50
2018-03-03T15:51:33.091Z,51.60
2018-03-03T15:53:25.878Z,52.50
2018-03-03T15:54:25.688Z,50.70
2018-03-03T15:56:19.375Z,51.70
2018-03-03T15:57:19.062Z,52.30
2018-03-03T15:59:11.936Z,50.80
2018-03-03T16:00:12.488Z,51.90
2018-03-03T16:02:04.806Z,52.70
2018-03-03T16:03:05.332Z,52.20
2018-03-03T16:04:57.856Z,52.60
2018-03-03T16:05:57.671Z,52.50
2018-03-03T16:07:51.025Z,52.10
2018-03-03T16:08:50.973Z,51.70
2018-03-03T16:10:44.163Z,51.60
2018-03-03T16:11:43.859Z,50.10
2018-03-03T16:13:37.466Z,52.10
2018-03-03T16:14:37.221Z,51.80
2018-03-03T16:16:30.083Z,53.00
2018-03-03T16:17:30.036Z,52.10
2018-03-03T16:19:23.240Z,53.00
2018-03-03T16:20:22.896Z,53.10
2018-03-03T16:22:16.866Z,52.40
2018-03-03T16:23:16.874Z,53.70
2018-03-03T16:25:09.929Z,53.60
2018-03-03T16:26:09.787Z,51.60
2018-03-03T16:28:03.187Z,51.20
2018-03-03T16:29:03.050Z,51.30
2018-03-03T16:30:57.116Z,54.50
2018-03-03T16:31:56.374Z,53.50
2018-03-03T16:33:49.367Z,54.00
2018-03-03T16:34:49.234Z,53.20
2018-03-03T16:36:42.133Z,50.80
2018-03-03T16:37:42.100Z,50.90
2018-03-03T16:39:34.990Z,53.10
2018-03-03T16:40:34.965Z,53.30
2018-03-03T16:42:28.347Z,53.90
2018-03-03T16:43:28.885Z,51.80
2018-03-03T16:45:21.747Z,52.20
2018-03-03T16:46:22.231Z,51.80
2018-03-03T16:48:15.041Z,51.30
2018-03-03T16:49:15.046Z,50.40
2018-03-03T16:51:07.896Z,51.00
2018-03-03T16:52:07.855Z,51.70
2018-03-03T16:54:00.857Z,51.50
2018-03-03T16:55:00.758Z,50.60
2018-03-03T16:56:53.623Z,50.70
2018-03-03T16:57:53.842Z,51.00
2018-03-03T16:59:46.478Z,53.80
2018-03-03T17:00:47.029Z,51.30
2018-03-03T17:02:39.927Z,52.90
2018-03-03T17:03:39.813Z,52.80
2018-03-03T17:05:33.218Z,53.10
2018-03-03T17:06:33.194Z,51.50
2018-03-03T17:08:27.825Z,51.10
2018-03-03T17:09:27.566Z,52.00
2018-03-03T17:11:20.442Z,51.70
2018-03-03T17:12:20.439Z,52.80
2018-03-03T17:14:13.291Z,53.70
2018-03-03T17:15:13.278Z,53.70
2018-03-03T17:17:06.637Z,51.60
2018-03-03T17:18:06.599Z,50.80
2018-03-03T17:19:59.504Z,51.00
2018-03-03T17:20:59.452Z,51.30
2018-03-03T17:22:52.871Z,52.20
2018-03-03T17:23:52.842Z,52.60
2018-03-03T17:25:45.700Z,53.40
2018-03-03T17:26:45.664Z,53.10
2018-03-03T17:28:38.560Z,50.70
2018-03-03T17:29:38.512Z,53.60
2018-03-03T17:31:31.905Z,52.60
2018-03-03T17:32:31.860Z,51.30
2018-03-03T17:34:25.041Z,53.80
2018-03-03T17:35:24.711Z,53.20
2018-03-03T17:37:18.134Z,53.00
2018-03-03T17:38:18.092Z,52.20
2018-03-03T17:40:10.950Z,53.60
2018-03-03T17:41:10.919Z,52.10
2018-03-03T17:43:04.308Z,54.20
2018-03-03T17:44:04.264Z,52.30
2018-03-03T17:45:58.883Z,53.60
2018-03-03T17:46:58.615Z,54.20
2018-03-03T17:48:51.985Z,53.80
2018-03-03T17:49:51.958Z,53.90
2018-03-03T17:51:44.916Z,54.40
2018-03-03T17:52:44.804Z,53.40
2018-03-03T17:54:37.687Z,53.80
2018-03-03T17:55:37.656Z,53.30
2018-03-03T17:57:30.591Z,54.40
2018-03-03T17:58:30.509Z,56.00
2018-03-03T18:00:23.532Z,54.40
2018-03-03T18:01:23.362Z,53.60
2018-03-03T18:03:16.250Z,55.20
2018-03-03T18:04:16.220Z,54.20
2018-03-03T18:06:09.612Z,57.90
2018-03-03T18:07:09.567Z,56.00
2018-03-03T18:09:02.479Z,60.80
2018-03-03T18:10:02.424Z,58.60
2018-03-03T18:11:55.842Z,63.00
2018-03-03T18:12:55.771Z,63.20
2018-03-03T18:14:49.252Z,53.70
2018-03-03T18:15:49.107Z,54.50
2018-03-03T18:17:42.008Z,57.20
2018-03-03T18:18:41.986Z,54.30
2018-03-03T18:20:34.935Z,54.70
2018-03-03T18:21:34.823Z,54.80
2018-03-03T18:23:27.731Z,53.30
2018-03-03T18:24:27.681Z,52.60
2018-03-03T18:26:20.578Z,58.20
2018-03-03T18:27:20.528Z,57.10
2018-03-03T18:29:13.412Z,56.20
2018-03-03T18:30:13.375Z,56.00
2018-03-03T18:32:06.264Z,56.50
2018-03-03T18:33:06.275Z,56.50
2018-03-03T18:34:59.696Z,56.90